Time;durP1;ratioP1;P1;durP2;ratioP2;P2;SDS_P1;SDS_P2;PMS_P1;PMS_P2;Temp;Humidity;BMP_temperature;BMP_pressure;BME280_temperature;BME280_humidity;BME280_pressure;Samples;Min_cycle;Max_cycle;Signal;HPM_P1;HPM_P2
2024/01/28 00:06:16;;;;;;;8.40;4.40;;;;;;;0.33;100.00;101108.14;432823;1261;139967;-58
2024/01/28 00:16:22;;;;;;;9.60;4.50;;;;;;;0.49;100.00;101106.47;432506;1262;140164;-57
2024/01/28 00:26:27;;;;;;;;;;;;;;;0.62;100.00;101123.20;436142;1261;141088;-58
2024/01/28 00:36:33;;;;;;;8.00;4.50;;;;;;;0.75;100.00;101126.50;432845;1261;125812;-58
2024/01/28 00:46:38;;;;;;;;;;;;;;;0.87;100.00;101135.64;437108;1260;139938;-57
2024/01/28 00:56:43;;;;;;;7.10;4.00;;;;;;;0.97;100.00;101144.63;432673;1260;126717;-59
2024/01/28 01:06:49;;;;;;;7.40;4.80;;;;;;;1.06;100.00;101153.26;432305;1258;140955;-59
2024/01/28 01:16:55;;;;;;;5.90;4.10;;;;;;;1.17;100.00;101162.05;432335;1257;140225;-58
2024/01/28 01:27:01;;;;;;;3.80;2.90;;;;;;;1.26;100.00;101164.98;432655;1260;140082;-59
2024/01/28 01:37:07;;;;;;;5.00;3.10;;;;;;;1.31;100.00;101171.02;432237;1261;140581;-58
2024/01/28 01:47:13;;;;;;;5.90;2.70;;;;;;;1.36;100.00;101163.59;435696;1260;140395;-58
2024/01/28 01:57:21;;;;;;;6.90;3.50;;;;;;;1.37;100.00;101166.02;442610;1257;141926;-58
2024/01/28 02:07:27;;;;;;;4.90;2.80;;;;;;;1.39;100.00;101166.19;432282;1260;139688;-58
2024/01/28 02:17:33;;;;;;;3.90;2.30;;;;;;;1.41;100.00;101164.98;432422;1261;141267;-59
2024/01/28 02:27:39;;;;;;;;;;;;;;;1.38;100.00;101160.15;436161;1257;365141;-57
2024/01/28 02:37:46;;;;;;;4.40;3.60;;;;;;;1.41;100.00;101161.52;432505;1258;126818;-59
2024/01/28 02:47:52;;;;;;;4.30;2.50;;;;;;;1.43;100.00;101165.84;432495;1261;140721;-59
2024/01/28 02:57:58;;;;;;;3.50;2.70;;;;;;;1.44;100.00;101163.77;434003;1260;140854;-58
2024/01/28 03:08:04;;;;;;;6.20;3.50;;;;;;;1.45;100.00;101170.67;432643;1258;139680;-57
2024/01/28 03:18:12;;;;;;;5.10;3.20;;;;;;;1.45;100.00;101180.85;432514;1261;140676;-58
2024/01/28 03:28:18;;;;;;;6.30;3.00;;;;;;;1.46;100.00;101195.01;442755;1257;140125;-58
2024/01/28 03:38:24;;;;;;;7.30;3.70;;;;;;;1.49;100.00;101213.98;432962;1257;140057;-58
2024/01/28 03:48:30;;;;;;;4.60;2.90;;;;;;;1.52;100.00;101224.17;437641;1257;140102;-58
2024/01/28 03:58:36;;;;;;;3.50;2.30;;;;;;;1.53;100.00;101228.14;432507;1260;139749;-56
2024/01/28 04:08:42;;;;;;;4.30;2.20;;;;;;;1.53;100.00;101235.05;432807;1258;139501;-58
2024/01/28 04:18:48;;;;;;;5.20;2.80;;;;;;;1.54;100.00;101245.05;433103;1258;139604;-58
2024/01/28 04:28:55;;;;;;;3.40;2.90;;;;;;;1.56;100.00;101244.20;433019;1257;139967;-59
2024/01/28 04:38:59;;;;;;;;;;;;;;;1.55;100.00;101247.13;433299;1258;139263;-59
2024/01/28 04:49:05;;;;;;;5.80;4.00;;;;;;;1.57;100.00;101259.56;433083;1257;126357;-59
2024/01/28 04:59:11;;;;;;;6.90;4.40;;;;;;;1.62;100.00;101267.67;432475;1256;142027;-59
2024/01/28 05:09:17;;;;;;;4.30;3.40;;;;;;;1.66;100.00;101280.96;432838;1260;140168;-60
2024/01/28 05:19:23;;;;;;;3.40;3.00;;;;;;;1.67;100.00;101290.46;433297;1257;140417;-58
2024/01/28 05:29:29;;;;;;;4.70;3.30;;;;;;;1.70;100.00;101302.38;432412;1260;140209;-59
2024/01/28 05:39:36;;;;;;;5.00;3.20;;;;;;;1.74;100.00;101305.31;432579;1260;140721;-57
2024/01/28 05:49:41;;;;;;;;;;;;;;;1.78;100.00;101312.73;433530;1257;139408;-58
2024/01/28 05:59:47;;;;;;;4.40;3.30;;;;;;;1.81;100.00;101313.61;432788;1258;126413;-58
2024/01/28 06:09:56;;;;;;;9.00;5.40;;;;;;;1.83;100.00;101311.17;432428;1257;140772;-58
2024/01/28 06:20:04;;;;;;;6.40;5.60;;;;;;;1.84;100.00;101332.08;433864;1257;140109;-59
2024/01/28 06:30:12;;;;;;;8.20;5.50;;;;;;;1.85;100.00;101346.24;432343;1257;139804;-59
2024/01/28 06:40:18;;;;;;;9.70;6.10;;;;;;;1.82;100.00;101350.21;432910;1257;140264;-60
2024/01/28 06:50:24;;;;;;;9.60;6.50;;;;;;;1.82;100.00;101369.89;432300;1260;139403;-58
2024/01/28 07:00:30;;;;;;;12.40;7.30;;;;;;;1.79;100.00;101372.30;432368;1257;140167;-58
2024/01/28 07:10:36;;;;;;;18.60;11.20;;;;;;;1.78;100.00;101366.95;435052;1258;140638;-57
2024/01/28 07:20:42;;;;;;;17.20;9.70;;;;;;;1.81;100.00;101370.08;432599;1260;139836;-58
2024/01/28 07:30:48;;;;;;;16.70;8.80;;;;;;;1.83;100.00;101382.33;432422;1257;140747;-58
2024/01/28 07:40:54;;;;;;;13.70;8.80;;;;;;;1.89;100.00;101382.33;432401;1259;141415;-58
2024/01/28 07:51:00;;;;;;;9.70;7.40;;;;;;;1.94;100.00;101397.36;432525;1257;139911;-57
2024/01/28 08:01:06;;;;;;;10.80;7.80;;;;;;;2.03;100.00;101407.73;432635;1260;139932;-57
2024/01/28 08:11:12;;;;;;;11.60;8.40;;;;;;;2.14;100.00;101410.16;433076;1258;140549;-58
2024/01/28 08:21:18;;;;;;;11.70;8.50;;;;;;;2.25;100.00;101409.82;433171;1258;140211;-59
2024/01/28 08:31:24;;;;;;;18.60;7.50;;;;;;;2.48;100.00;101413.77;432432;1259;140718;-59
2024/01/28 08:41:30;;;;;;;13.60;7.60;;;;;;;2.99;100.00;101416.60;432549;1258;141121;-59
2024/01/28 08:51:40;;;;;;;9.30;6.70;;;;;;;3.72;100.00;101421.09;432999;1259;139402;-59
2024/01/28 09:01:47;;;;;;;7.90;6.70;;;;;;;5.40;100.00;101413.98;435279;1257;141458;-57
2024/01/28 09:11:53;;;;;;;5.50;2.90;;;;;;;8.54;100.00;101426.35;437381;1258;139698;-58
2024/01/28 09:22:05;;;;;;;6.40;4.30;;;;;;;8.40;100.00;101432.85;432858;1258;141377;-58
2024/01/28 09:32:11;;;;;;;6.50;5.00;;;;;;;7.51;100.00;101447.98;436515;1257;140542;-58
2024/01/28 09:42:23;;;;;;;5.10;3.60;;;;;;;9.09;100.00;101442.28;432540;1259;140123;-58
2024/01/28 09:52:30;;;;;;;3.50;2.30;;;;;;;11.22;100.00;101433.26;432569;1260;141285;-58
2024/01/28 10:02:39;;;;;;;3.00;1.80;;;;;;;9.35;100.00;101431.81;433774;1256;139784;-59
2024/01/28 10:12:49;;;;;;;4.30;1.90;;;;;;;7.83;100.00;101442.90;436164;1259;139890;-59
2024/01/28 10:22:56;;;;;;;7.10;4.80;;;;;;;6.77;100.00;101446.11;432597;1257;140860;-59
2024/01/28 10:33:02;;;;;;;9.50;6.80;;;;;;;6.06;100.00;101448.14;432881;1258;139618;-59
2024/01/28 10:43:16;;;;;;;14.10;8.10;;;;;;;5.79;100.00;101459.66;434031;1257;141015;-58
2024/01/28 10:53:24;;;;;;;18.30;9.40;;;;;;;5.51;100.00;101464.03;433377;1257;140855;-59
2024/01/28 11:03:31;;;;;;;15.20;9.20;;;;;;;5.32;100.00;101459.58;432833;1258;139517;-58
2024/01/28 11:13:38;;;;;;;15.60;10.90;;;;;;;5.09;100.00;101457.58;436503;1260;139901;-57
2024/01/28 11:23:48;;;;;;;13.50;9.30;;;;;;;4.59;100.00;101462.77;433430;1258;140293;-58
2024/01/28 11:33:54;;;;;;;15.70;9.80;;;;;;;4.39;100.00;101468.48;433057;1260;140852;-58
2024/01/28 11:44:01;;;;;;;15.20;8.70;;;;;;;4.39;100.00;101470.57;432440;1260;139723;-57
2024/01/28 11:54:07;;;;;;;16.20;10.00;;;;;;;4.28;100.00;101473.26;433058;1260;140538;-58
2024/01/28 12:04:14;;;;;;;16.70;10.90;;;;;;;4.22;100.00;101470.52;432767;1257;140016;-57
2024/01/28 12:14:20;;;;;;;16.20;11.60;;;;;;;4.25;100.00;101473.79;432522;1258;140404;-57
2024/01/28 12:24:26;;;;;;;16.70;10.70;;;;;;;4.27;100.00;101466.48;432488;1261;141602;-58
2024/01/28 12:34:32;;;;;;;16.30;11.50;;;;;;;4.23;100.00;101465.99;434273;1260;141945;-58
2024/01/28 12:44:38;;;;;;;18.80;12.80;;;;;;;4.14;100.00;101472.83;432355;1258;140483;-59
2024/01/28 12:54:44;;;;;;;20.80;13.10;;;;;;;4.05;100.00;101470.28;432241;1258;140097;-59
2024/01/28 13:04:51;;;;;;;23.70;13.60;;;;;;;3.99;100.00;101477.44;432595;1258;139773;-58
2024/01/28 13:14:57;;;;;;;18.70;12.70;;;;;;;3.95;100.00;101476.42;432717;1261;144041;-58
2024/01/28 13:25:03;;;;;;;18.30;13.30;;;;;;;3.93;100.00;101476.96;432393;1261;140874;-59
2024/01/28 13:35:10;;;;;;;16.10;11.80;;;;;;;3.91;100.00;101469.52;434925;1258;140154;-59
2024/01/28 13:45:16;;;;;;;22.70;13.30;;;;;;;3.89;100.00;101463.63;434769;1257;140636;-59
2024/01/28 13:55:22;;;;;;;21.60;14.70;;;;;;;3.92;100.00;101466.38;434385;1259;140534;-58
2024/01/28 14:05:28;;;;;;;23.50;14.60;;;;;;;3.96;100.00;101466.20;432463;1261;140731;-59
2024/01/28 14:15:37;;;;;;;29.40;16.60;;;;;;;3.90;100.00;101472.81;432794;1258;140296;-59
2024/01/28 14:25:44;;;;;;;28.90;20.80;;;;;;;3.82;100.00;101474.94;436072;1260;190953;-57
2024/01/28 14:35:51;;;;;;;37.40;25.70;;;;;;;3.72;100.00;101478.45;432549;1259;139969;-58
2024/01/28 14:45:58;;;;;;;32.60;24.30;;;;;;;3.62;100.00;101486.81;433891;1261;140656;-57
2024/01/28 14:56:06;;;;;;;37.30;23.60;;;;;;;3.53;100.00;101496.73;435787;1261;139902;-59
2024/01/28 15:06:12;;;;;;;35.10;23.40;;;;;;;3.42;100.00;101491.40;434802;1260;140898;-58
2024/01/28 15:16:18;;;;;;;26.40;18.50;;;;;;;3.35;100.00;101485.53;437531;1258;140072;-58
2024/01/28 15:26:24;;;;;;;30.50;20.70;;;;;;;3.26;100.00;101484.20;433406;1260;140246;-57
2024/01/28 15:36:30;;;;;;;33.60;25.20;;;;;;;3.18;100.00;101493.21;433031;1259;140180;-60
2024/01/28 15:46:39;;;;;;;36.10;27.10;;;;;;;3.11;100.00;101495.31;432709;1261;140458;-53
2024/01/28 15:56:45;;;;;;;51.40;31.20;;;;;;;3.00;100.00;101492.04;433025;1259;139632;-57
2024/01/28 16:06:51;;;;;;;16.20;13.50;;;;;;;2.90;100.00;101485.13;432459;1260;140008;-58
2024/01/28 16:16:57;;;;;;;14.40;9.70;;;;;;;2.84;100.00;101488.26;432736;1258;141381;-58
2024/01/28 16:27:03;;;;;;;20.90;12.90;;;;;;;2.77;100.00;101491.38;432740;1259;139943;-58
2024/01/28 16:37:09;;;;;;;31.70;21.40;;;;;;;2.74;100.00;101494.33;432389;1261;141766;-59
2024/01/28 16:47:15;;;;;;;25.70;19.40;;;;;;;2.72;100.00;101498.48;432371;1258;140181;-58
2024/01/28 16:57:22;;;;;;;36.60;21.90;;;;;;;2.67;100.00;101507.66;433112;1256;141485;-58
2024/01/28 17:07:30;;;;;;;25.00;18.20;;;;;;;2.69;100.00;101511.27;432248;1261;140924;-57
2024/01/28 17:17:36;;;;;;;23.50;15.50;;;;;;;2.70;100.00;101518.54;436778;1260;140936;-58
2024/01/28 17:27:44;;;;;;;25.30;20.50;;;;;;;2.68;100.00;101518.71;433502;1261;141687;-58
2024/01/28 17:37:50;;;;;;;36.70;27.10;;;;;;;2.64;100.00;101513.19;432667;1259;141418;-58
2024/01/28 17:47:56;;;;;;;41.70;33.00;;;;;;;2.60;100.00;101512.67;432820;1261;140910;-58
2024/01/28 17:58:02;;;;;;;59.50;42.70;;;;;;;2.56;100.00;101516.46;433133;1257;140014;-59
2024/01/28 18:08:08;;;;;;;52.30;37.90;;;;;;;2.55;100.00;101512.84;433204;1261;142359;-57
2024/01/28 18:18:15;;;;;;;38.10;28.30;;;;;;;2.52;100.00;101506.96;435677;1261;141091;-58
2024/01/28 18:28:21;;;;;;;46.60;35.00;;;;;;;2.47;100.00;101511.79;432996;1261;141460;-57
2024/01/28 18:38:27;;;;;;;50.90;38.80;;;;;;;2.45;100.00;101513.01;433020;1261;140226;-58
2024/01/28 18:48:33;;;;;;;72.20;48.00;;;;;;;2.45;100.00;101526.14;433141;1260;141754;-57
2024/01/28 18:58:39;;;;;;;65.90;47.40;;;;;;;2.44;100.00;101524.77;432551;1261;141426;-57
2024/01/28 19:08:45;;;;;;;57.80;39.80;;;;;;;2.38;100.00;101516.80;432613;1259;140486;-58
2024/01/28 19:18:51;;;;;;;62.50;43.10;;;;;;;2.33;100.00;101508.50;432528;1257;140356;-59
2024/01/28 19:28:57;;;;;;;49.90;36.20;;;;;;;2.28;100.00;101508.51;432444;1264;140342;-58
2024/01/28 19:39:05;;;;;;;43.80;31.20;;;;;;;2.24;100.00;101503.65;432758;1261;141192;-59
2024/01/28 19:49:10;;;;;;;45.00;32.60;;;;;;;2.21;100.00;101513.85;432548;1261;141526;-58
2024/01/28 19:59:17;;;;;;;35.70;26.60;;;;;;;2.19;100.00;101512.27;432490;1261;142012;-59
2024/01/28 20:09:23;;;;;;;90.80;63.80;;;;;;;2.18;100.00;101502.43;432906;1260;139726;-58
2024/01/28 20:19:29;;;;;;;58.50;42.80;;;;;;;2.18;100.00;101496.39;433044;1261;141208;-58
2024/01/28 20:29:35;;;;;;;59.90;43.80;;;;;;;2.15;100.00;101478.93;432409;1258;141752;-58
2024/01/28 20:39:41;;;;;;;51.10;37.60;;;;;;;2.01;100.00;101474.41;432674;1257;141230;-58
2024/01/28 20:49:48;;;;;;;50.90;36.60;;;;;;;1.87;100.00;101487.86;433632;1260;141270;-57
2024/01/28 20:59:55;;;;;;;56.50;37.00;;;;;;;1.71;100.00;101487.98;433430;1257;141200;-58
2024/01/28 21:10:01;;;;;;;52.10;38.90;;;;;;;1.50;100.00;101493.42;432763;1260;140076;-58
2024/01/28 21:20:09;;;;;;;55.00;40.60;;;;;;;1.31;100.00;101493.18;435655;1256;140611;-57
2024/01/28 21:30:15;;;;;;;48.70;32.90;;;;;;;1.10;100.00;101507.55;437505;1260;141585;-59
2024/01/28 21:40:22;;;;;;;43.60;32.50;;;;;;;0.89;100.00;101502.08;432653;1260;140717;-57
2024/01/28 21:50:28;;;;;;;40.10;29.00;;;;;;;0.51;100.00;101501.62;432406;1260;141012;-58
2024/01/28 22:00:34;;;;;;;43.20;29.70;;;;;;;0.15;100.00;101511.28;432697;1260;141337;-58
2024/01/28 22:10:40;;;;;;;43.70;30.50;;;;;;;-0.06;100.00;101512.10;432416;1258;140092;-58
2024/01/28 22:20:46;;;;;;;36.40;24.90;;;;;;;-0.22;100.00;101521.91;434043;1258;140967;-58
2024/01/28 22:30:52;;;;;;;44.40;29.80;;;;;;;-0.36;100.00;101510.73;432501;1260;140619;-57
2024/01/28 22:40:58;;;;;;;46.70;32.00;;;;;;;-0.53;100.00;101511.38;432475;1260;139804;-57
2024/01/28 22:51:05;;;;;;;40.70;25.40;;;;;;;-0.68;100.00;101518.24;432664;1261;141026;-57
2024/01/28 23:01:11;;;;;;;;;;;;;;;-0.72;100.00;101495.66;435458;1256;142549;-56
2024/01/28 23:11:17;;;;;;;41.90;28.20;;;;;;;-0.78;100.00;101486.28;432778;1260;126381;-57
2024/01/28 23:21:23;;;;;;;42.90;28.60;;;;;;;-0.93;100.00;101480.76;432660;1258;140259;-57
2024/01/28 23:31:29;;;;;;;36.10;27.40;;;;;;;-1.09;100.00;101485.00;432283;1257;140511;-58
2024/01/28 23:41:34;;;;;;;;;;;;;;;-1.19;100.00;101484.17;432976;1260;141850;-58
2024/01/28 23:51:40;;;;;;;41.10;26.70;;;;;;;-1.24;100.00;101474.80;433328;1257;125949;-55
